sensor_id;sensor_type;location;lat;lon;timestamp;temperature;humidity
10233;DHT22;5161;48.174;11.756;2023-04-01T00:00:47;9.60;72.60
10233;DHT22;5161;48.174;11.756;2023-04-01T00:03:12;9.60;72.30
10233;DHT22;5161;48.174;11.756;2023-04-01T00:05:38;9.70;72.60
10233;DHT22;5161;48.174;11.756;2023-04-01T00:08:04;9.60;72.30
10233;DHT22;5161;48.174;11.756;2023-04-01T00:10:29;9.70;72.40
10233;DHT22;5161;48.174;11.756;2023-04-01T00:12:55;9.60;72.30
10233;DHT22;5161;48.174;11.756;2023-04-01T00:15:20;9.70;72.60
10233;DHT22;5161;48.174;11.756;2023-04-01T00:17:46;9.60;72.60
10233;DHT22;5161;48.174;11.756;2023-04-01T00:20:12;9.60;72.80
10233;DHT22;5161;48.174;11.756;2023-04-01T00:22:40;9.50;73.10
10233;DHT22;5161;48.174;11.756;2023-04-01T00:25:05;9.40;73.80
10233;DHT22;5161;48.174;11.756;2023-04-01T00:27:31;9.40;73.70
10233;DHT22;5161;48.174;11.756;2023-04-01T00:29:57;9.40;74.10
10233;DHT22;5161;48.174;11.756;2023-04-01T00:32:23;9.20;73.80
10233;DHT22;5161;48.174;11.756;2023-04-01T00:34:52;9.20;74.20
10233;DHT22;5161;48.174;11.756;2023-04-01T00:37:18;9.20;74.20
10233;DHT22;5161;48.174;11.756;2023-04-01T00:39:44;9.30;74.60
10233;DHT22;5161;48.174;11.756;2023-04-01T00:42:10;9.30;74.20
10233;DHT22;5161;48.174;11.756;2023-04-01T00:44:37;9.20;74.20
10233;DHT22;5161;48.174;11.756;2023-04-01T00:47:02;9.10;74.20
10233;DHT22;5161;48.174;11.756;2023-04-01T00:49:35;9.20;74.20
10233;DHT22;5161;48.174;11.756;2023-04-01T00:52:04;9.30;74.50
10233;DHT22;5161;48.174;11.756;2023-04-01T00:54:32;9.30;74.30
10233;DHT22;5161;48.174;11.756;2023-04-01T00:57:25;9.40;74.30
10233;DHT22;5161;48.174;11.756;2023-04-01T00:59:54;9.30;73.80
10233;DHT22;5161;48.174;11.756;2023-04-01T01:02:20;9.30;74.10
10233;DHT22;5161;48.174;11.756;2023-04-01T01:04:46;9.30;74.20
10233;DHT22;5161;48.174;11.756;2023-04-01T01:17:58;9.40;74.00
10233;DHT22;5161;48.174;11.756;2023-04-01T01:28:48;9.40;73.90
10233;DHT22;5161;48.174;11.756;2023-04-01T01:31:28;9.40;74.20
10233;DHT22;5161;48.174;11.756;2023-04-01T01:34:40;9.40;73.60
10233;DHT22;5161;48.174;11.756;2023-04-01T01:37:13;9.30;73.30
10233;DHT22;5161;48.174;11.756;2023-04-01T01:39:42;9.40;75.00
10233;DHT22;5161;48.174;11.756;2023-04-01T01:42:11;9.40;75.10
10233;DHT22;5161;48.174;11.756;2023-04-01T01:44:39;9.40;74.90
10233;DHT22;5161;48.174;11.756;2023-04-01T01:47:05;9.40;74.80
10233;DHT22;5161;48.174;11.756;2023-04-01T01:49:32;9.50;74.10
10233;DHT22;5161;48.174;11.756;2023-04-01T01:51:59;9.50;74.70
10233;DHT22;5161;48.174;11.756;2023-04-01T01:54:25;9.40;74.20
10233;DHT22;5161;48.174;11.756;2023-04-01T01:57:12;9.40;74.60
10233;DHT22;5161;48.174;11.756;2023-04-01T01:59:38;9.30;73.90
10233;DHT22;5161;48.174;11.756;2023-04-01T02:02:06;9.40;74.80
10233;DHT22;5161;48.174;11.756;2023-04-01T02:04:40;9.40;74.60
10233;DHT22;5161;48.174;11.756;2023-04-01T02:07:19;9.40;73.60
10233;DHT22;5161;48.174;11.756;2023-04-01T02:09:47;9.40;73.50
10233;DHT22;5161;48.174;11.756;2023-04-01T02:12:15;9.50;74.50
10233;DHT22;5161;48.174;11.756;2023-04-01T02:14:55;9.50;74.60
10233;DHT22;5161;48.174;11.756;2023-04-01T02:17:30;9.60;73.50
10233;DHT22;5161;48.174;11.756;2023-04-01T02:20:07;9.60;74.40
10233;DHT22;5161;48.174;11.756;2023-04-01T02:22:38;9.50;73.20
10233;DHT22;5161;48.174;11.756;2023-04-01T02:25:08;9.60;74.20
10233;DHT22;5161;48.174;11.756;2023-04-01T02:27:34;9.50;74.10
10233;DHT22;5161;48.174;11.756;2023-04-01T02:30:01;9.50;73.50
10233;DHT22;5161;48.174;11.756;2023-04-01T02:32:28;9.50;73.30
10233;DHT22;5161;48.174;11.756;2023-04-01T02:34:54;9.50;73.60
10233;DHT22;5161;48.174;11.756;2023-04-01T02:37:20;9.50;73.30
10233;DHT22;5161;48.174;11.756;2023-04-01T02:39:46;9.50;73.20
10233;DHT22;5161;48.174;11.756;2023-04-01T02:42:12;9.40;73.20
10233;DHT22;5161;48.174;11.756;2023-04-01T02:44:38;9.50;73.50
10233;DHT22;5161;48.174;11.756;2023-04-01T02:47:04;9.50;73.20
10233;DHT22;5161;48.174;11.756;2023-04-01T02:49:29;9.50;73.80
10233;DHT22;5161;48.174;11.756;2023-04-01T02:51:55;9.40;73.10
10233;DHT22;5161;48.174;11.756;2023-04-01T02:54:20;9.40;73.40
10233;DHT22;5161;48.174;11.756;2023-04-01T02:56:46;9.40;73.50
10233;DHT22;5161;48.174;11.756;2023-04-01T02:59:12;9.40;73.20
10233;DHT22;5161;48.174;11.756;2023-04-01T03:01:37;9.40;73.10
10233;DHT22;5161;48.174;11.756;2023-04-01T03:04:04;9.30;73.20
10233;DHT22;5161;48.174;11.756;2023-04-01T03:06:29;9.30;73.90
10233;DHT22;5161;48.174;11.756;2023-04-01T03:08:55;9.40;73.80
10233;DHT22;5161;48.174;11.756;2023-04-01T03:11:21;9.40;73.40
10233;DHT22;5161;48.174;11.756;2023-04-01T03:13:47;9.40;73.50
10233;DHT22;5161;48.174;11.756;2023-04-01T03:16:13;9.40;73.20
10233;DHT22;5161;48.174;11.756;2023-04-01T03:18:39;9.40;73.10
10233;DHT22;5161;48.174;11.756;2023-04-01T03:21:22;9.40;73.20
10233;DHT22;5161;48.174;11.756;2023-04-01T03:23:47;9.40;74.00
10233;DHT22;5161;48.174;11.756;2023-04-01T03:26:14;9.40;73.20
10233;DHT22;5161;48.174;11.756;2023-04-01T03:28:39;9.40;73.30
10233;DHT22;5161;48.174;11.756;2023-04-01T03:31:05;9.50;73.20
10233;DHT22;5161;48.174;11.756;2023-04-01T03:33:31;9.40;72.90
10233;DHT22;5161;48.174;11.756;2023-04-01T03:35:57;9.40;73.00
10233;DHT22;5161;48.174;11.756;2023-04-01T03:38:23;9.40;72.70
10233;DHT22;5161;48.174;11.756;2023-04-01T03:40:48;9.40;72.90
10233;DHT22;5161;48.174;11.756;2023-04-01T03:43:14;9.30;73.10
10233;DHT22;5161;48.174;11.756;2023-04-01T03:45:50;9.30;73.10
10233;DHT22;5161;48.174;11.756;2023-04-01T03:48:17;9.20;73.40
10233;DHT22;5161;48.174;11.756;2023-04-01T03:50:43;9.20;73.40
10233;DHT22;5161;48.174;11.756;2023-04-01T03:53:08;9.10;73.80
10233;DHT22;5161;48.174;11.756;2023-04-01T03:55:36;9.20;73.50
10233;DHT22;5161;48.174;11.756;2023-04-01T03:58:02;9.20;73.50
10233;DHT22;5161;48.174;11.756;2023-04-01T04:00:31;9.20;73.20
10233;DHT22;5161;48.174;11.756;2023-04-01T04:02:57;9.20;73.60
10233;DHT22;5161;48.174;11.756;2023-04-01T04:05:23;9.20;73.20
10233;DHT22;5161;48.174;11.756;2023-04-01T04:07:49;9.30;73.30
10233;DHT22;5161;48.174;11.756;2023-04-01T04:10:15;9.20;73.10
10233;DHT22;5161;48.174;11.756;2023-04-01T04:12:40;9.30;73.10
10233;DHT22;5161;48.174;11.756;2023-04-01T04:15:07;9.30;73.10
10233;DHT22;5161;48.174;11.756;2023-04-01T04:17:32;9.20;73.20
10233;DHT22;5161;48.174;11.756;2023-04-01T04:19:58;9.20;73.10
10233;DHT22;5161;48.174;11.756;2023-04-01T04:22:24;9.20;73.00
10233;DHT22;5161;48.174;11.756;2023-04-01T04:24:49;9.20;73.20
10233;DHT22;5161;48.174;11.756;2023-04-01T04:27:15;9.20;73.30
10233;DHT22;5161;48.174;11.756;2023-04-01T04:29:41;9.20;73.30
10233;DHT22;5161;48.174;11.756;2023-04-01T04:32:06;9.20;73.10
10233;DHT22;5161;48.174;11.756;2023-04-01T04:34:32;9.20;73.40
10233;DHT22;5161;48.174;11.756;2023-04-01T04:36:58;9.20;73.40
10233;DHT22;5161;48.174;11.756;2023-04-01T04:39:23;9.20;73.20
10233;DHT22;5161;48.174;11.756;2023-04-01T04:41:49;9.20;73.40
10233;DHT22;5161;48.174;11.756;2023-04-01T04:44:15;9.20;73.70
10233;DHT22;5161;48.174;11.756;2023-04-01T04:46:40;9.20;74.20
10233;DHT22;5161;48.174;11.756;2023-04-01T04:49:06;9.20;73.70
10233;DHT22;5161;48.174;11.756;2023-04-01T04:51:32;9.30;73.70
10233;DHT22;5161;48.174;11.756;2023-04-01T04:54:04;9.30;73.30
10233;DHT22;5161;48.174;11.756;2023-04-01T04:56:31;9.30;73.50
10233;DHT22;5161;48.174;11.756;2023-04-01T04:58:57;9.30;73.50
10233;DHT22;5161;48.174;11.756;2023-04-01T05:01:22;9.30;73.60
10233;DHT22;5161;48.174;11.756;2023-04-01T05:03:48;9.40;73.60
10233;DHT22;5161;48.174;11.756;2023-04-01T05:06:15;9.40;73.60
10233;DHT22;5161;48.174;11.756;2023-04-01T05:08:42;9.40;73.50
10233;DHT22;5161;48.174;11.756;2023-04-01T05:11:12;9.40;73.70
10233;DHT22;5161;48.174;11.756;2023-04-01T05:13:37;9.40;74.10
10233;DHT22;5161;48.174;11.756;2023-04-01T05:16:03;9.40;73.60
10233;DHT22;5161;48.174;11.756;2023-04-01T05:18:29;9.40;73.80
10233;DHT22;5161;48.174;11.756;2023-04-01T05:20:55;9.40;73.50
10233;DHT22;5161;48.174;11.756;2023-04-01T05:23:21;9.40;73.50
10233;DHT22;5161;48.174;11.756;2023-04-01T05:25:48;9.40;73.60
10233;DHT22;5161;48.174;11.756;2023-04-01T05:28:15;9.40;73.80
10233;DHT22;5161;48.174;11.756;2023-04-01T05:30:41;9.40;73.60
10233;DHT22;5161;48.174;11.756;2023-04-01T05:33:08;9.40;73.30
10233;DHT22;5161;48.174;11.756;2023-04-01T05:35:34;9.30;73.60
10233;DHT22;5161;48.174;11.756;2023-04-01T05:37:59;9.30;73.10
10233;DHT22;5161;48.174;11.756;2023-04-01T05:40:25;9.30;73.50
10233;DHT22;5161;48.174;11.756;2023-04-01T05:42:50;9.30;73.20
10233;DHT22;5161;48.174;11.756;2023-04-01T05:45:16;9.40;72.90
10233;DHT22;5161;48.174;11.756;2023-04-01T05:47:42;9.30;73.00
10233;DHT22;5161;48.174;11.756;2023-04-01T05:50:09;9.30;73.10
10233;DHT22;5161;48.174;11.756;2023-04-01T05:52:36;9.20;73.60
10233;DHT22;5161;48.174;11.756;2023-04-01T05:55:02;9.30;72.90
10233;DHT22;5161;48.174;11.756;2023-04-01T05:57:28;9.20;73.40
10233;DHT22;5161;48.174;11.756;2023-04-01T05:59:53;9.30;73.00
10233;DHT22;5161;48.174;11.756;2023-04-01T06:02:19;9.30;72.50
10233;DHT22;5161;48.174;11.756;2023-04-01T06:04:45;9.40;72.60
10233;DHT22;5161;48.174;11.756;2023-04-01T06:07:12;9.40;72.20
10233;DHT22;5161;48.174;11.756;2023-04-01T06:09:38;9.40;72.70
10233;DHT22;5161;48.174;11.756;2023-04-01T06:14:55;9.40;72.00
10233;DHT22;5161;48.174;11.756;2023-04-01T06:20:31;9.40;72.40
10233;DHT22;5161;48.174;11.756;2023-04-01T06:26:20;9.40;72.10
10233;DHT22;5161;48.174;11.756;2023-04-01T06:29:01;9.50;71.90
10233;DHT22;5161;48.174;11.756;2023-04-01T06:37:54;9.60;71.70
10233;DHT22;5161;48.174;11.756;2023-04-01T06:46:23;9.60;71.10
10233;DHT22;5161;48.174;11.756;2023-04-01T06:49:03;9.60;71.20
10233;DHT22;5161;48.174;11.756;2023-04-01T06:54:24;9.70;70.50
10233;DHT22;5161;48.174;11.756;2023-04-01T06:56:57;9.60;70.20
10233;DHT22;5161;48.174;11.756;2023-04-01T06:59:32;9.60;70.20
10233;DHT22;5161;48.174;11.756;2023-04-01T07:02:03;9.60;70.30
10233;DHT22;5161;48.174;11.756;2023-04-01T07:04:33;9.60;69.90
10233;DHT22;5161;48.174;11.756;2023-04-01T07:07:03;9.60;69.60
10233;DHT22;5161;48.174;11.756;2023-04-01T07:09:37;9.60;69.80
10233;DHT22;5161;48.174;11.756;2023-04-01T07:12:15;9.70;70.00
10233;DHT22;5161;48.174;11.756;2023-04-01T07:14:42;9.70;69.80
10233;DHT22;5161;48.174;11.756;2023-04-01T07:17:20;9.80;69.80
10233;DHT22;5161;48.174;11.756;2023-04-01T07:19:50;9.70;69.80
10233;DHT22;5161;48.174;11.756;2023-04-01T07:22:36;9.80;69.90
10233;DHT22;5161;48.174;11.756;2023-04-01T07:25:16;9.90;70.00
10233;DHT22;5161;48.174;11.756;2023-04-01T07:27:43;9.90;69.70
10233;DHT22;5161;48.174;11.756;2023-04-01T07:30:17;9.90;68.90
10233;DHT22;5161;48.174;11.756;2023-04-01T07:32:56;9.90;70.00
10233;DHT22;5161;48.174;11.756;2023-04-01T07:35:34;10.00;68.70
10233;DHT22;5161;48.174;11.756;2023-04-01T07:38:20;10.00;68.20
10233;DHT22;5161;48.174;11.756;2023-04-01T07:49:22;9.90;69.00
10233;DHT22;5161;48.174;11.756;2023-04-01T07:52:04;9.90;68.60
10233;DHT22;5161;48.174;11.756;2023-04-01T07:54:51;10.00;68.50
10233;DHT22;5161;48.174;11.756;2023-04-01T07:57:50;10.00;68.10
10233;DHT22;5161;48.174;11.756;2023-04-01T08:00:22;10.10;67.80
10233;DHT22;5161;48.174;11.756;2023-04-01T08:03:07;10.10;68.00
10233;DHT22;5161;48.174;11.756;2023-04-01T08:05:53;10.20;67.40
10233;DHT22;5161;48.174;11.756;2023-04-01T08:17:07;10.30;68.00
10233;DHT22;5161;48.174;11.756;2023-04-01T08:20:08;10.30;67.70
10233;DHT22;5161;48.174;11.756;2023-04-01T08:22:42;10.30;66.70
10233;DHT22;5161;48.174;11.756;2023-04-01T08:25:15;10.30;66.80
10233;DHT22;5161;48.174;11.756;2023-04-01T08:27:48;10.30;66.80
10233;DHT22;5161;48.174;11.756;2023-04-01T08:30:23;10.30;66.60
10233;DHT22;5161;48.174;11.756;2023-04-01T08:33:00;10.40;67.10
10233;DHT22;5161;48.174;11.756;2023-04-01T08:38:26;10.40;66.30
10233;DHT22;5161;48.174;11.756;2023-04-01T08:41:01;10.50;66.60
10233;DHT22;5161;48.174;11.756;2023-04-01T08:52:02;10.60;66.60
10233;DHT22;5161;48.174;11.756;2023-04-01T08:54:56;10.60;66.50
10233;DHT22;5161;48.174;11.756;2023-04-01T08:57:45;10.70;66.70
10233;DHT22;5161;48.174;11.756;2023-04-01T09:20:17;10.90;65.20
10233;DHT22;5161;48.174;11.756;2023-04-01T09:33:42;11.20;65.90
10233;DHT22;5161;48.174;11.756;2023-04-01T09:36:26;11.30;66.30
10233;DHT22;5161;48.174;11.756;2023-04-01T09:41:57;11.30;65.00
10233;DHT22;5161;48.174;11.756;2023-04-01T09:45:23;11.30;64.50
10233;DHT22;5161;48.174;11.756;2023-04-01T10:06:58;11.50;63.80
10233;DHT22;5161;48.174;11.756;2023-04-01T10:17:56;11.60;62.70
10233;DHT22;5161;48.174;11.756;2023-04-01T10:26:31;11.70;63.30
10233;DHT22;5161;48.174;11.756;2023-04-01T10:32:12;11.70;62.90
10233;DHT22;5161;48.174;11.756;2023-04-01T10:37:58;11.70;62.90
10233;DHT22;5161;48.174;11.756;2023-04-01T10:41:05;11.60;62.60
10233;DHT22;5161;48.174;11.756;2023-04-01T10:55:14;11.70;62.50
10233;DHT22;5161;48.174;11.756;2023-04-01T10:58:31;11.70;62.80
10233;DHT22;5161;48.174;11.756;2023-04-01T11:15:23;11.60;64.30
10233;DHT22;5161;48.174;11.756;2023-04-01T11:18:20;11.60;65.30
10233;DHT22;5161;48.174;11.756;2023-04-01T11:32:37;11.50;67.50
10233;DHT22;5161;48.174;11.756;2023-04-01T11:35:31;11.40;67.70
10233;DHT22;5161;48.174;11.756;2023-04-01T11:44:21;11.50;67.40
10233;DHT22;5161;48.174;11.756;2023-04-01T12:05:42;11.10;70.00
10233;DHT22;5161;48.174;11.756;2023-04-01T12:14:03;10.90;70.90
10233;DHT22;5161;48.174;11.756;2023-04-01T12:16:47;10.80;72.60
10233;DHT22;5161;48.174;11.756;2023-04-01T12:19:39;10.80;72.60
10233;DHT22;5161;48.174;11.756;2023-04-01T12:30:21;10.30;73.60
10233;DHT22;5161;48.174;11.756;2023-04-01T12:36:12;10.20;73.40
10233;DHT22;5161;48.174;11.756;2023-04-01T12:44:23;10.10;74.60
10233;DHT22;5161;48.174;11.756;2023-04-01T12:55:37;9.90;75.00
10233;DHT22;5161;48.174;11.756;2023-04-01T12:58:32;9.90;75.50
10233;DHT22;5161;48.174;11.756;2023-04-01T13:01:23;9.90;73.70
10233;DHT22;5161;48.174;11.756;2023-04-01T13:06:45;9.90;74.30
10233;DHT22;5161;48.174;11.756;2023-04-01T13:12:29;10.10;75.10
10233;DHT22;5161;48.174;11.756;2023-04-01T13:15:05;10.10;76.30
10233;DHT22;5161;48.174;11.756;2023-04-01T13:17:45;9.90;76.20
10233;DHT22;5161;48.174;11.756;2023-04-01T13:23:04;9.90;74.50
10233;DHT22;5161;48.174;11.756;2023-04-01T13:28:26;10.00;76.70
10233;DHT22;5161;48.174;11.756;2023-04-01T13:36:49;9.80;75.00
10233;DHT22;5161;48.174;11.756;2023-04-01T13:42:49;9.90;74.70
10233;DHT22;5161;48.174;11.756;2023-04-01T13:45:24;9.80;76.00
10233;DHT22;5161;48.174;11.756;2023-04-01T13:51:22;9.80;75.40
10233;DHT22;5161;48.174;11.756;2023-04-01T14:14:36;9.70;77.50
10233;DHT22;5161;48.174;11.756;2023-04-01T14:23:03;10.00;76.60
10233;DHT22;5161;48.174;11.756;2023-04-01T14:36:56;9.90;77.60
10233;DHT22;5161;48.174;11.756;2023-04-01T14:42:31;10.10;76.30
10233;DHT22;5161;48.174;11.756;2023-04-01T14:45:24;10.10;76.50
10233;DHT22;5161;48.174;11.756;2023-04-01T14:47:59;10.00;75.70
10233;DHT22;5161;48.174;11.756;2023-04-01T14:50:46;9.90;77.30
10233;DHT22;5161;48.174;11.756;2023-04-01T14:53:30;10.00;75.80
10233;DHT22;5161;48.174;11.756;2023-04-01T14:56:01;10.00;75.60
10233;DHT22;5161;48.174;11.756;2023-04-01T14:58:47;9.90;77.40
10233;DHT22;5161;48.174;11.756;2023-04-01T15:04:13;10.10;75.70
10233;DHT22;5161;48.174;11.756;2023-04-01T15:07:11;10.10;75.90
10233;DHT22;5161;48.174;11.756;2023-04-01T15:20:35;10.30;76.70
10233;DHT22;5161;48.174;11.756;2023-04-01T15:23:10;10.20;76.70
10233;DHT22;5161;48.174;11.756;2023-04-01T15:26:08;10.20;77.20
10233;DHT22;5161;48.174;11.756;2023-04-01T15:31:41;10.30;75.20
10233;DHT22;5161;48.174;11.756;2023-04-01T15:34:25;10.10;76.40
10233;DHT22;5161;48.174;11.756;2023-04-01T15:37:14;10.20;76.30
10233;DHT22;5161;48.174;11.756;2023-04-01T15:39:54;10.10;75.30
10233;DHT22;5161;48.174;11.756;2023-04-01T15:42:36;10.20;76.40
10233;DHT22;5161;48.174;11.756;2023-04-01T15:51:07;10.30;75.40
10233;DHT22;5161;48.174;11.756;2023-04-01T15:56:54;10.30;74.20
10233;DHT22;5161;48.174;11.756;2023-04-01T16:02:18;10.30;73.90
10233;DHT22;5161;48.174;11.756;2023-04-01T16:05:04;10.30;74.60
10233;DHT22;5161;48.174;11.756;2023-04-01T16:10:54;10.40;74.40
10233;DHT22;5161;48.174;11.756;2023-04-01T16:21:37;10.40;72.80
10233;DHT22;5161;48.174;11.756;2023-04-01T16:24:15;10.30;72.70
10233;DHT22;5161;48.174;11.756;2023-04-01T16:26:55;10.40;72.60
10233;DHT22;5161;48.174;11.756;2023-04-01T16:29:48;10.40;72.60
10233;DHT22;5161;48.174;11.756;2023-04-01T16:32:48;10.40;71.80
10233;DHT22;5161;48.174;11.756;2023-04-01T16:35:47;10.40;71.60
10233;DHT22;5161;48.174;11.756;2023-04-01T16:38:26;10.40;71.90
10233;DHT22;5161;48.174;11.756;2023-04-01T16:43:40;10.60;71.40
10233;DHT22;5161;48.174;11.756;2023-04-01T16:51:47;10.50;71.20
10233;DHT22;5161;48.174;11.756;2023-04-01T16:56:55;10.50;70.50
10233;DHT22;5161;48.174;11.756;2023-04-01T16:59:24;10.50;71.30
10233;DHT22;5161;48.174;11.756;2023-04-01T17:04:45;10.50;69.90
10233;DHT22;5161;48.174;11.756;2023-04-01T17:07:30;10.40;70.20
10233;DHT22;5161;48.174;11.756;2023-04-01T17:21:10;10.40;69.30
10233;DHT22;5161;48.174;11.756;2023-04-01T17:23:51;10.40;70.20
10233;DHT22;5161;48.174;11.756;2023-04-01T17:26:40;10.40;69.00
10233;DHT22;5161;48.174;11.756;2023-04-01T17:32:03;10.40;69.70
10233;DHT22;5161;48.174;11.756;2023-04-01T17:40:06;10.40;69.10
10233;DHT22;5161;48.174;11.756;2023-04-01T17:42:58;10.30;69.30
10233;DHT22;5161;48.174;11.756;2023-04-01T17:46:02;10.40;69.40
10233;DHT22;5161;48.174;11.756;2023-04-01T17:54:43;10.40;69.00
10233;DHT22;5161;48.174;11.756;2023-04-01T18:02:56;10.40;69.60
10233;DHT22;5161;48.174;11.756;2023-04-01T18:11:17;10.40;68.80
10233;DHT22;5161;48.174;11.756;2023-04-01T18:13:50;10.40;68.70
10233;DHT22;5161;48.174;11.756;2023-04-01T18:21:55;10.30;67.90
10233;DHT22;5161;48.174;11.756;2023-04-01T18:24:31;10.30;68.00
10233;DHT22;5161;48.174;11.756;2023-04-01T18:27:30;10.30;68.10
10233;DHT22;5161;48.174;11.756;2023-04-01T18:30:13;10.40;67.90
10233;DHT22;5161;48.174;11.756;2023-04-01T18:38:16;10.30;67.90
10233;DHT22;5161;48.174;11.756;2023-04-01T18:40:53;10.20;67.80
10233;DHT22;5161;48.174;11.756;2023-04-01T18:46:52;10.30;68.70
10233;DHT22;5161;48.174;11.756;2023-04-01T18:49:30;10.30;68.70
10233;DHT22;5161;48.174;11.756;2023-04-01T18:52:07;10.30;69.00
10233;DHT22;5161;48.174;11.756;2023-04-01T18:54:43;10.30;68.80
10233;DHT22;5161;48.174;11.756;2023-04-01T18:57:15;10.20;68.50
10233;DHT22;5161;48.174;11.756;2023-04-01T19:02:30;10.20;68.70
10233;DHT22;5161;48.174;11.756;2023-04-01T19:05:52;10.10;68.60
10233;DHT22;5161;48.174;11.756;2023-04-01T19:22:00;10.20;68.90
10233;DHT22;5161;48.174;11.756;2023-04-01T19:30:20;10.30;69.80
10233;DHT22;5161;48.174;11.756;2023-04-01T19:35:47;10.30;69.90
10233;DHT22;5161;48.174;11.756;2023-04-01T19:38:37;10.20;70.70
10233;DHT22;5161;48.174;11.756;2023-04-01T19:44:11;10.10;70.70
10233;DHT22;5161;48.174;11.756;2023-04-01T19:46:46;10.10;70.50
10233;DHT22;5161;48.174;11.756;2023-04-01T19:49:36;10.20;71.30
10233;DHT22;5161;48.174;11.756;2023-04-01T20:00:29;10.20;71.10
10233;DHT22;5161;48.174;11.756;2023-04-01T20:03:15;10.10;70.90
10233;DHT22;5161;48.174;11.756;2023-04-01T20:05:56;10.10;71.20
10233;DHT22;5161;48.174;11.756;2023-04-01T20:08:45;10.10;70.90
10233;DHT22;5161;48.174;11.756;2023-04-01T20:14:43;10.20;70.90
10233;DHT22;5161;48.174;11.756;2023-04-01T20:17:21;10.20;71.10
10233;DHT22;5161;48.174;11.756;2023-04-01T20:20:00;10.10;71.20
10233;DHT22;5161;48.174;11.756;2023-04-01T20:27:51;10.10;71.50
10233;DHT22;5161;48.174;11.756;2023-04-01T20:44:12;10.00;70.70
10233;DHT22;5161;48.174;11.756;2023-04-01T20:46:51;10.00;70.80
10233;DHT22;5161;48.174;11.756;2023-04-01T20:57:24;10.00;71.10
10233;DHT22;5161;48.174;11.756;2023-04-01T21:05:57;9.90;71.90
10233;DHT22;5161;48.174;11.756;2023-04-01T21:11:16;9.90;72.10
10233;DHT22;5161;48.174;11.756;2023-04-01T21:19:41;10.00;70.90
10233;DHT22;5161;48.174;11.756;2023-04-01T21:30:43;9.90;71.80
10233;DHT22;5161;48.174;11.756;2023-04-01T21:38:42;10.00;71.30
10233;DHT22;5161;48.174;11.756;2023-04-01T21:49:19;10.10;70.90
10233;DHT22;5161;48.174;11.756;2023-04-01T22:00:17;9.90;71.70
10233;DHT22;5161;48.174;11.756;2023-04-01T22:03:00;9.80;72.20
10233;DHT22;5161;48.174;11.756;2023-04-01T22:05:48;9.90;72.40
10233;DHT22;5161;48.174;11.756;2023-04-01T22:11:30;9.90;72.00
10233;DHT22;5161;48.174;11.756;2023-04-01T22:14:09;9.90;71.70
10233;DHT22;5161;48.174;11.756;2023-04-01T22:17:05;9.90;72.00
10233;DHT22;5161;48.174;11.756;2023-04-01T22:20:04;9.80;72.10
10233;DHT22;5161;48.174;11.756;2023-04-01T22:22:49;9.70;71.90
10233;DHT22;5161;48.174;11.756;2023-04-01T22:25:21;9.80;72.30
10233;DHT22;5161;48.174;11.756;2023-04-01T22:28:07;9.80;72.70
10233;DHT22;5161;48.174;11.756;2023-04-01T22:31:04;9.90;72.70
10233;DHT22;5161;48.174;11.756;2023-04-01T22:33:59;9.80;72.60
10233;DHT22;5161;48.174;11.756;2023-04-01T22:39:57;9.90;72.30
10233;DHT22;5161;48.174;11.756;2023-04-01T22:56:30;9.90;71.70
10233;DHT22;5161;48.174;11.756;2023-04-01T22:59:09;9.90;72.30
10233;DHT22;5161;48.174;11.756;2023-04-01T23:01:41;9.90;72.30
10233;DHT22;5161;48.174;11.756;2023-04-01T23:04:12;10.00;71.20
10233;DHT22;5161;48.174;11.756;2023-04-01T23:06:44;9.90;72.20
10233;DHT22;5161;48.174;11.756;2023-04-01T23:09:19;9.90;72.40
10233;DHT22;5161;48.174;11.756;2023-04-01T23:12:04;9.90;72.50
10233;DHT22;5161;48.174;11.756;2023-04-01T23:14:41;9.80;73.40
10233;DHT22;5161;48.174;11.756;2023-04-01T23:28:56;9.70;72.80
10233;DHT22;5161;48.174;11.756;2023-04-01T23:30:52;9.70;72.60
10233;DHT22;5161;48.174;11.756;2023-04-01T23:33:26;9.70;72.30
10233;DHT22;5161;48.174;11.756;2023-04-01T23:35:57;9.70;72.60
10233;DHT22;5161;48.174;11.756;2023-04-01T23:38:33;9.70;72.30
10233;DHT22;5161;48.174;11.756;2023-04-01T23:40:59;9.70;72.40
10233;DHT22;5161;48.174;11.756;2023-04-01T23:43:32;9.70;72.30
10233;DHT22;5161;48.174;11.756;2023-04-01T23:46:01;9.70;72.60
10233;DHT22;5161;48.174;11.756;2023-04-01T23:48:40;9.60;72.40
10233;DHT22;5161;48.174;11.756;2023-04-01T23:51:21;9.70;73.20
10233;DHT22;5161;48.174;11.756;2023-04-01T23:53:57;9.70;72.90
10233;DHT22;5161;48.174;11.756;2023-04-01T23:56:34;9.60;72.30
10233;DHT22;5161;48.174;11.756;2023-04-01T23:59:02;9.60;72.90
